Time;durP1;ratioP1;P1;durP2;ratioP2;P2;SDS_P1;SDS_P2;PMS_P1;PMS_P2;Temp;Humidity;BMP_temperature;BMP_pressure;BME280_temperature;BME280_humidity;BME280_pressure;Samples;Min_cycle;Max_cycle;Signal;HPM_P1;HPM_P2
2023/07/01 00:01:47;;;;;;;3.40;2.10;;;18.40;67.50;;;;;;5078567;28;20201;-75
2023/07/01 00:04:12;;;;;;;2.97;2.17;;;18.50;67.50;;;;;;5108950;28;20226;-75
2023/07/01 00:06:41;;;;;;;4.07;2.50;;;18.50;67.40;;;;;;5106701;28;20185;-73
2023/07/01 00:09:09;;;;;;;3.57;2.07;;;18.50;67.30;;;;;;5071884;28;20224;-73
2023/07/01 00:11:35;;;;;;;2.40;2.20;;;18.50;67.30;;;;;;5090209;28;20395;-74
2023/07/01 00:14:00;;;;;;;2.67;2.07;;;18.40;67.30;;;;;;5080629;28;20421;-76
2023/07/01 00:16:27;;;;;;;3.70;2.70;;;18.50;67.40;;;;;;5069682;28;20193;-77
2023/07/01 00:18:53;;;;;;;3.50;2.90;;;18.50;67.50;;;;;;5069061;28;20225;-74
2023/07/01 00:21:19;;;;;;;3.90;2.50;;;18.50;67.20;;;;;;5064840;28;20407;-73
2023/07/01 00:23:44;;;;;;;2.30;2.10;;;18.50;67.10;;;;;;5050426;28;20219;-75
2023/07/01 00:26:10;;;;;;;2.90;2.50;;;18.50;67.00;;;;;;5105192;28;20183;-74
2023/07/01 00:28:36;;;;;;;3.30;2.43;;;18.50;67.90;;;;;;5106329;28;20888;-73
2023/07/01 00:31:01;;;;;;;3.80;2.20;;;18.50;67.20;;;;;;5072382;28;20205;-73
2023/07/01 00:33:27;;;;;;;3.03;2.60;;;18.50;67.30;;;;;;5065007;28;20178;-74
2023/07/01 00:35:52;;;;;;;2.50;2.10;;;18.40;67.40;;;;;;5077831;28;20185;-74
2023/07/01 00:38:18;;;;;;;2.80;2.37;;;18.50;67.70;;;;;;5086353;28;20242;-74
2023/07/01 00:40:44;;;;;;;4.20;2.30;;;18.40;67.70;;;;;;5067940;28;20200;-76
2023/07/01 00:43:11;;;;;;;2.60;2.27;;;18.40;68.00;;;;;;5095605;28;20498;-74
2023/07/01 00:45:36;;;;;;;3.43;1.93;;;18.40;67.90;;;;;;5094650;28;20449;-78
2023/07/01 00:48:02;;;;;;;3.40;2.23;;;18.40;67.90;;;;;;5090749;28;20220;-74
2023/07/01 00:50:28;;;;;;;2.10;1.90;;;18.30;67.90;;;;;;5106543;28;20344;-77
2023/07/01 00:52:54;;;;;;;3.50;2.27;;;18.40;68.00;;;;;;5110178;28;20176;-74
2023/07/01 00:55:19;;;;;;;2.23;1.87;;;18.40;67.90;;;;;;5109573;28;20207;-75
2023/07/01 00:57:45;;;;;;;3.37;2.40;;;18.40;67.70;;;;;;5094431;28;20435;-74
2023/07/01 01:00:12;;;;;;;2.90;2.40;;;18.40;67.50;;;;;;5078301;28;20279;-74
2023/07/01 01:02:58;;;;;;;2.10;1.90;;;18.40;67.30;;;;;;5068997;28;20207;-73
2023/07/01 01:05:39;;;;;;;3.00;2.13;;;18.40;67.30;;;;;;5099690;28;20458;-76
2023/07/01 01:08:10;;;;;;;2.43;1.90;;;18.40;67.10;;;;;;5102997;28;20454;-75
2023/07/01 01:10:40;;;;;;;4.30;3.20;;;18.40;67.10;;;;;;5103422;28;20413;-76
2023/07/01 01:13:06;;;;;;;4.40;2.60;;;18.40;66.90;;;;;;5107273;28;20418;-73
2023/07/01 01:15:33;;;;;;;3.07;2.20;;;18.40;66.70;;;;;;5088713;28;20427;-74
2023/07/01 01:18:04;;;;;;;3.37;2.47;;;18.50;66.80;;;;;;5090741;28;20426;-73
2023/07/01 01:20:33;;;;;;;4.07;2.20;;;18.40;66.70;;;;;;5104694;28;20725;-75
2023/07/01 01:23:21;;;;;;;2.00;1.80;;;18.40;66.70;;;;;;5105783;28;20422;-75
2023/07/01 01:25:52;;;;;;;3.20;2.53;;;18.40;66.60;;;;;;5106031;28;20398;-75
2023/07/01 01:28:18;;;;;;;3.10;2.00;;;18.40;66.60;;;;;;5105393;28;20542;-73
2023/07/01 01:30:43;;;;;;;3.30;2.23;;;18.40;66.60;;;;;;5085365;28;20459;-73
2023/07/01 01:33:09;;;;;;;4.60;2.20;;;18.40;66.50;;;;;;5075590;28;20549;-75
2023/07/01 01:35:35;;;;;;;3.10;2.57;;;18.40;66.50;;;;;;5107922;28;20194;-73
2023/07/01 01:38:18;;;;;;;4.17;2.77;;;18.40;66.40;;;;;;5105854;28;20189;-73
2023/07/01 01:41:00;;;;;;;2.23;1.97;;;18.40;66.40;;;;;;5093591;28;20447;-74
2023/07/01 01:43:41;;;;;;;2.30;1.60;;;18.40;67.30;;;;;;5083508;28;20414;-76
2023/07/01 01:46:08;;;;;;;2.40;2.20;;;18.40;66.50;;;;;;5074697;28;20430;-74
2023/07/01 01:48:35;;;;;;;3.67;2.90;;;18.40;66.50;;;;;;5074502;28;20469;-75
2023/07/01 01:51:02;;;;;;;3.23;2.53;;;18.40;66.40;;;;;;5072489;28;20579;-72
2023/07/01 01:53:28;;;;;;;2.80;2.57;;;18.40;66.30;;;;;;5064927;28;20412;-75
2023/07/01 01:55:54;;;;;;;2.73;2.27;;;18.40;66.10;;;;;;5103831;28;20437;-76
2023/07/01 01:58:20;;;;;;;4.63;2.70;;;18.40;66.00;;;;;;5105091;28;20429;-73
2023/07/01 02:00:46;;;;;;;3.60;2.43;;;18.40;65.90;;;;;;5061460;28;20525;-73
2023/07/01 02:03:12;;;;;;;3.13;1.83;;;18.40;65.60;;;;;;5080408;28;20259;-73
2023/07/01 02:05:41;;;;;;;3.00;2.30;;;18.40;65.50;;;;;;5086506;28;20465;-74
2023/07/01 02:08:07;;;;;;;3.80;2.60;;;18.50;65.40;;;;;;5094911;28;20463;-72
2023/07/01 02:10:33;;;;;;;2.70;2.23;;;18.40;65.20;;;;;;5105031;28;20701;-73
2023/07/01 02:12:59;;;;;;;3.23;2.60;;;18.50;65.30;;;;;;5111043;28;20497;-73
2023/07/01 02:15:24;;;;;;;5.37;2.30;;;18.50;65.20;;;;;;5075062;28;20187;-73
2023/07/01 02:17:50;;;;;;;2.70;1.90;;;18.50;65.20;;;;;;5076462;28;20186;-74
2023/07/01 02:20:16;;;;;;;4.87;2.23;;;18.50;65.30;;;;;;5101869;28;20200;-73
2023/07/01 02:22:42;;;;;;;3.13;2.17;;;18.50;65.20;;;;;;5102577;28;20431;-73
2023/07/01 02:25:07;;;;;;;3.90;2.80;;;18.50;64.90;;;;;;5100913;28;20700;-73
2023/07/01 02:27:34;;;;;;;4.03;2.20;;;18.50;64.30;;;;;;5115598;28;20501;-74
2023/07/01 02:30:00;;;;;;;2.43;2.23;;;18.50;63.90;;;;;;5110664;28;20437;-73
2023/07/01 02:32:26;;;;;;;3.50;2.27;;;18.50;63.50;;;;;;5094687;28;20207;-73
2023/07/01 02:34:51;;;;;;;2.00;1.77;;;18.50;63.00;;;;;;5103516;28;20427;-73
2023/07/01 02:37:17;;;;;;;4.00;2.60;;;18.50;62.70;;;;;;5102464;28;20207;-74
2023/07/01 02:39:45;;;;;;;3.57;2.20;;;18.60;61.70;;;;;;5083994;28;20202;-72
2023/07/01 02:42:11;;;;;;;2.83;2.40;;;18.60;61.40;;;;;;5116261;28;20170;-73
2023/07/01 02:44:37;;;;;;;2.70;2.47;;;18.60;61.20;;;;;;5104381;28;21215;-73
2023/07/01 02:47:02;;;;;;;3.73;2.87;;;18.70;60.80;;;;;;5090333;28;20201;-73
2023/07/01 02:49:28;;;;;;;3.67;2.50;;;18.70;60.70;;;;;;5077990;28;20281;-72
2023/07/01 02:51:54;;;;;;;2.20;2.00;;;18.70;60.70;;;;;;5095902;28;20184;-72
2023/07/01 02:54:19;;;;;;;3.70;2.60;;;18.70;60.60;;;;;;5078561;28;20187;-72
2023/07/01 02:56:45;;;;;;;5.47;2.30;;;18.70;60.50;;;;;;5105803;28;20213;-72
2023/07/01 02:59:11;;;;;;;2.73;2.17;;;18.70;60.30;;;;;;5083116;28;20210;-72
2023/07/01 03:01:37;;;;;;;2.53;2.13;;;18.70;60.30;;;;;;5072038;28;20266;-72
2023/07/01 03:04:06;;;;;;;3.80;2.23;;;18.70;60.40;;;;;;5079802;28;20571;-75
2023/07/01 03:06:31;;;;;;;2.30;1.90;;;18.70;60.30;;;;;;5089977;28;20188;-71
2023/07/01 03:08:57;;;;;;;2.90;2.50;;;18.70;60.20;;;;;;5116545;28;20488;-73
2023/07/01 03:11:22;;;;;;;2.90;2.43;;;18.70;60.30;;;;;;5112623;28;20179;-73
2023/07/01 03:13:48;;;;;;;3.83;2.77;;;18.70;60.30;;;;;;5096850;28;20184;-73
2023/07/01 03:16:14;;;;;;;4.27;2.00;;;18.70;61.10;;;;;;5081482;28;20203;-71
2023/07/01 03:18:39;;;;;;;3.40;2.13;;;18.70;60.20;;;;;;5107600;28;20527;-73
2023/07/01 03:21:05;;;;;;;3.30;2.20;;;18.70;60.20;;;;;;5098069;28;20199;-73
2023/07/01 03:23:31;;;;;;;2.73;2.10;;;18.70;60.10;;;;;;5095669;28;20570;-71
2023/07/01 03:25:58;;;;;;;2.93;2.10;;;18.70;60.00;;;;;;5098042;28;20184;-71
2023/07/01 03:28:24;;;;;;;4.10;2.20;;;18.70;59.90;;;;;;5097388;28;20495;-72
2023/07/01 03:30:51;;;;;;;3.87;2.23;;;18.70;59.80;;;;;;5078444;28;20457;-71
2023/07/01 03:33:17;;;;;;;2.73;1.97;;;18.70;59.80;;;;;;5095141;28;20192;-73
2023/07/01 03:35:43;;;;;;;5.10;2.20;;;18.70;59.70;;;;;;5104263;28;20796;-74
2023/07/01 03:38:09;;;;;;;2.97;2.27;;;18.70;59.60;;;;;;5115552;28;20190;-72
2023/07/01 03:40:34;;;;;;;2.47;1.97;;;18.70;59.40;;;;;;5096707;28;20472;-73
2023/07/01 03:43:00;;;;;;;1.80;1.57;;;18.70;59.40;;;;;;5116540;28;20201;-73
2023/07/01 03:45:25;;;;;;;2.43;1.80;;;18.70;59.40;;;;;;5102162;28;20192;-72
2023/07/01 03:47:51;;;;;;;1.90;1.60;;;18.70;59.40;;;;;;5095560;28;20296;-72
2023/07/01 03:50:16;;;;;;;1.90;1.60;;;18.70;59.50;;;;;;5095929;28;20261;-73
2023/07/01 03:52:42;;;;;;;2.30;2.10;;;18.70;59.50;;;;;;5104284;28;20596;-74
2023/07/01 03:55:11;;;;;;;4.43;1.60;;;18.70;59.70;;;;;;5109367;28;20176;-73
2023/07/01 03:57:37;;;;;;;2.80;2.00;;;18.70;59.80;;;;;;5111153;28;20208;-72
2023/07/01 04:00:08;;;;;;;2.63;1.93;;;18.70;59.90;;;;;;5114097;28;20451;-73
2023/07/01 04:02:38;;;;;;;1.97;1.63;;;18.70;60.00;;;;;;5076986;28;20391;-74
2023/07/01 04:05:10;;;;;;;3.40;2.47;;;18.70;60.00;;;;;;5108838;28;20754;-72
2023/07/01 04:07:37;;;;;;;3.77;2.03;;;18.70;60.30;;;;;;5099311;28;20488;-73
2023/07/01 04:10:05;;;;;;;3.50;2.40;;;18.70;60.50;;;;;;5102848;28;20477;-72
2023/07/01 04:12:32;;;;;;;3.27;2.00;;;18.70;60.70;;;;;;5114954;28;20520;-72
2023/07/01 04:14:58;;;;;;;5.27;2.23;;;18.70;60.90;;;;;;5105365;28;20510;-72
2023/07/01 04:17:24;;;;;;;2.83;2.40;;;18.70;61.20;;;;;;5088049;28;20525;-72
2023/07/01 04:19:49;;;;;;;3.50;2.10;;;18.70;61.30;;;;;;5116918;28;20242;-73
2023/07/01 04:22:15;;;;;;;2.53;1.80;;;18.70;61.60;;;;;;5098706;28;20171;-72
2023/07/01 04:24:40;;;;;;;2.70;1.70;;;18.70;61.80;;;;;;5098894;28;20420;-73
2023/07/01 04:27:06;;;;;;;1.80;1.50;;;18.70;61.80;;;;;;5113952;28;20268;-72
2023/07/01 04:29:31;;;;;;;3.10;1.87;;;18.70;62.00;;;;;;5114395;28;20207;-73
2023/07/01 04:31:57;;;;;;;7.13;2.40;;;18.70;62.20;;;;;;5109892;28;20176;-72
2023/07/01 04:34:22;;;;;;;2.23;1.53;;;18.80;62.20;;;;;;5098739;28;20518;-73
2023/07/01 04:36:48;;;;;;;2.37;2.03;;;18.80;62.20;;;;;;5098733;28;20567;-71
2023/07/01 04:39:14;;;;;;;9.30;4.50;;;18.80;62.20;;;;;;5098150;28;20482;-73
2023/07/01 04:41:40;;;;;;;5.93;3.17;;;18.80;62.30;;;;;;5099077;28;20202;-73
2023/07/01 04:44:05;;;;;;;3.57;2.30;;;18.80;62.20;;;;;;5098261;28;20179;-73
2023/07/01 04:46:32;;;;;;;2.23;2.03;;;18.80;62.30;;;;;;5104293;28;20495;-73
2023/07/01 04:48:59;;;;;;;2.60;2.23;;;18.80;62.20;;;;;;5100007;28;20266;-72
2023/07/01 04:51:25;;;;;;;2.30;2.10;;;18.80;62.10;;;;;;5078133;28;20498;-73
2023/07/01 04:53:51;;;;;;;3.20;2.20;;;18.80;63.10;;;;;;5117878;28;20401;-72
2023/07/01 04:56:16;;;;;;;3.57;2.43;;;18.70;64.90;;;;;;5118812;28;20512;-73
2023/07/01 04:58:42;;;;;;;6.70;2.27;;;18.70;65.70;;;;;;5113028;28;20554;-73
2023/07/01 05:01:08;;;;;;;3.23;2.40;;;18.60;66.60;;;;;;5090671;28;20483;-72
2023/07/01 05:03:33;;;;;;;3.13;2.17;;;18.60;67.90;;;;;;5086205;28;20253;-73
2023/07/01 05:05:59;;;;;;;2.33;2.00;;;18.60;68.80;;;;;;5107523;28;20192;-74
2023/07/01 05:08:24;;;;;;;1.60;1.50;;;18.70;68.50;;;;;;5098166;28;20286;-73
2023/07/01 05:10:50;;;;;;;2.10;1.43;;;18.80;68.00;;;;;;5112143;28;20604;-73
2023/07/01 05:13:15;;;;;;;2.57;1.80;;;18.80;67.60;;;;;;5103447;28;20539;-72
2023/07/01 05:15:41;;;;;;;2.37;2.00;;;18.90;66.90;;;;;;5088254;28;20280;-72
2023/07/01 05:18:07;;;;;;;2.23;1.57;;;19.00;66.20;;;;;;5109593;28;20189;-73
2023/07/01 05:20:33;;;;;;;6.43;2.30;;;19.10;65.50;;;;;;5097477;28;20208;-71
2023/07/01 05:22:58;;;;;;;2.67;1.97;;;19.20;64.80;;;;;;5110586;28;20886;-73
2023/07/01 05:25:24;;;;;;;3.50;2.50;;;19.30;64.20;;;;;;5116291;28;20644;-74
2023/07/01 05:27:49;;;;;;;2.33;2.13;;;19.30;63.10;;;;;;5105183;28;20681;-73
2023/07/01 05:30:15;;;;;;;4.43;2.13;;;19.40;62.90;;;;;;5097031;28;20291;-73
2023/07/01 05:32:40;;;;;;;2.07;1.87;;;19.40;62.40;;;;;;5077002;28;20218;-73
2023/07/01 05:35:06;;;;;;;4.43;2.60;;;19.40;61.70;;;;;;5089578;28;20445;-73
2023/07/01 05:37:32;;;;;;;2.77;2.43;;;19.50;61.10;;;;;;5118523;28;20188;-74
2023/07/01 05:39:57;;;;;;;2.13;1.57;;;19.50;61.20;;;;;;5118147;28;20203;-72
2023/07/01 05:42:23;;;;;;;2.90;1.93;;;19.50;61.00;;;;;;5117210;28;20191;-74
2023/07/01 05:44:48;;;;;;;4.73;1.83;;;19.60;60.80;;;;;;5114226;28;20196;-74
2023/07/01 05:47:14;;;;;;;4.20;2.20;;;19.70;60.30;;;;;;5118026;28;20278;-73
2023/07/01 05:49:39;;;;;;;2.40;2.20;;;19.80;59.60;;;;;;5103318;28;20457;-74
2023/07/01 05:52:05;;;;;;;5.10;1.80;;;19.90;59.50;;;;;;5111614;28;20479;-73
2023/07/01 05:54:31;;;;;;;2.40;2.00;;;19.90;59.30;;;;;;5117765;28;20172;-74
2023/07/01 05:56:56;;;;;;;3.87;2.60;;;20.00;59.10;;;;;;5092898;28;20579;-73
2023/07/01 05:59:22;;;;;;;2.50;1.80;;;20.00;58.80;;;;;;5095602;28;20538;-73
2023/07/01 06:01:47;;;;;;;2.83;2.00;;;20.10;58.70;;;;;;5113314;28;20221;-75
2023/07/01 06:04:13;;;;;;;2.50;2.07;;;20.20;58.40;;;;;;5109092;28;20216;-73
2023/07/01 06:06:39;;;;;;;3.00;1.70;;;20.20;58.30;;;;;;5113246;28;20263;-72
2023/07/01 06:09:08;;;;;;;6.00;2.60;;;20.30;58.10;;;;;;5123563;28;20225;-74
2023/07/01 06:11:34;;;;;;;3.33;2.97;;;20.30;57.60;;;;;;5108088;28;20357;-74
2023/07/01 06:14:00;;;;;;;2.93;2.30;;;20.30;57.60;;;;;;5128875;28;20409;-75
2023/07/01 06:16:25;;;;;;;3.83;1.97;;;20.30;57.20;;;;;;5071205;28;20417;-73
2023/07/01 06:18:51;;;;;;;3.50;2.47;;;20.30;57.30;;;;;;5111134;28;20196;-75
2023/07/01 06:21:17;;;;;;;4.57;2.60;;;20.30;57.30;;;;;;5131128;28;20175;-74
2023/07/01 06:23:42;;;;;;;4.40;2.17;;;20.20;57.50;;;;;;5122849;28;20249;-74
2023/07/01 06:26:08;;;;;;;4.43;2.70;;;20.20;58.00;;;;;;5097403;28;20263;-75
2023/07/01 06:28:34;;;;;;;3.10;2.80;;;20.10;58.30;;;;;;5094020;28;20218;-74
2023/07/01 06:30:59;;;;;;;4.10;2.83;;;20.10;58.80;;;;;;5090277;28;20216;-73
2023/07/01 06:33:25;;;;;;;5.93;2.97;;;20.00;59.30;;;;;;5092592;28;20176;-74
2023/07/01 06:35:50;;;;;;;3.23;2.40;;;19.90;60.00;;;;;;5103785;28;20180;-73
2023/07/01 06:38:16;;;;;;;5.67;2.10;;;19.90;61.10;;;;;;5111875;28;20511;-73
2023/07/01 06:40:42;;;;;;;3.70;2.57;;;19.80;62.30;;;;;;5117974;28;20218;-74
2023/07/01 06:43:07;;;;;;;3.43;2.40;;;19.90;62.60;;;;;;5098010;28;20175;-74
2023/07/01 06:45:35;;;;;;;3.00;2.50;;;19.90;63.10;;;;;;5103996;28;20259;-74
2023/07/01 06:48:01;;;;;;;4.43;3.30;;;19.90;63.90;;;;;;5057940;28;20475;-75
2023/07/01 06:50:26;;;;;;;2.87;2.57;;;20.00;65.30;;;;;;5064696;28;20423;-75
2023/07/01 06:52:54;;;;;;;4.17;2.63;;;19.90;66.70;;;;;;5092015;28;20601;-74
2023/07/01 06:55:21;;;;;;;4.50;3.17;;;19.70;68.40;;;;;;5122431;28;20187;-74
2023/07/01 06:57:46;;;;;;;7.47;2.90;;;19.50;71.60;;;;;;5114565;28;20421;-76
2023/07/01 07:00:13;;;;;;;5.40;3.60;;;19.20;75.30;;;;;;5097718;28;20450;-75
2023/07/01 07:02:39;;;;;;;5.20;3.00;;;18.90;80.00;;;;;;5065668;28;20192;-74
2023/07/01 07:05:06;;;;;;;2.97;2.67;;;18.70;85.30;;;;;;5064039;28;20477;-74
2023/07/01 07:07:32;;;;;;;5.00;3.37;;;18.60;89.60;;;;;;5088705;28;20433;-74
2023/07/01 07:09:58;;;;;;;2.90;2.50;;;18.50;92.70;;;;;;5121243;28;20868;-74
2023/07/01 07:12:25;;;;;;;4.43;2.70;;;18.50;93.80;;;;;;5103864;28;20422;-74
2023/07/01 07:14:50;;;;;;;3.07;2.10;;;18.60;95.70;;;;;;5098397;28;20425;-74
2023/07/01 07:17:16;;;;;;;4.10;2.50;;;18.60;97.40;;;;;;5098600;28;20429;-76
2023/07/01 07:19:42;;;;;;;3.30;2.23;;;18.60;98.90;;;;;;5108144;28;20204;-75
2023/07/01 07:22:07;;;;;;;2.73;2.53;;;18.70;99.90;;;;;;5100975;28;20442;-74
2023/07/01 07:24:33;;;;;;;4.03;2.93;;;18.70;99.90;;;;;;5105117;28;20241;-74
2023/07/01 07:27:00;;;;;;;2.70;2.20;;;18.90;99.90;;;;;;5086286;28;20199;-75
2023/07/01 07:29:28;;;;;;;2.87;2.30;;;18.90;99.90;;;;;;5111810;28;20214;-77
2023/07/01 07:31:55;;;;;;;3.33;2.40;;;19.00;99.90;;;;;;5076497;28;21083;-76
2023/07/01 07:34:21;;;;;;;2.80;2.53;;;19.10;99.90;;;;;;5114462;28;20452;-75
2023/07/01 07:36:47;;;;;;;2.60;2.40;;;19.20;99.90;;;;;;5106366;28;20434;-75
2023/07/01 07:39:13;;;;;;;7.50;3.37;;;19.30;99.90;;;;;;5105772;28;20917;-74
2023/07/01 07:41:40;;;;;;;3.43;2.00;;;19.40;99.90;;;;;;5111227;28;20728;-75
2023/07/01 07:44:07;;;;;;;6.00;2.77;;;19.60;99.90;;;;;;5092148;28;20509;-76
2023/07/01 07:46:34;;;;;;;8.17;3.00;;;19.90;99.90;;;;;;5108504;28;20430;-75
2023/07/01 07:49:00;;;;;;;4.20;2.60;;;20.20;99.50;;;;;;5084479;28;20534;-76
2023/07/01 07:51:25;;;;;;;5.57;2.83;;;20.30;98.60;;;;;;5112033;28;20405;-78
2023/07/01 07:53:51;;;;;;;3.37;2.47;;;20.40;99.60;;;;;;5130960;28;20180;-76
2023/07/01 07:56:17;;;;;;;4.77;2.40;;;20.40;98.50;;;;;;5130182;28;20183;-75
2023/07/01 07:58:43;;;;;;;3.40;2.50;;;20.30;98.00;;;;;;5129077;28;20182;-77
2023/07/01 08:01:09;;;;;;;2.47;2.10;;;20.30;99.30;;;;;;5088320;28;20203;-75
2023/07/01 08:03:35;;;;;;;5.10;2.87;;;20.20;99.90;;;;;;5069902;28;20455;-75
2023/07/01 08:06:01;;;;;;;3.83;2.40;;;20.20;99.90;;;;;;5070761;28;20205;-75
2023/07/01 08:08:26;;;;;;;2.30;2.07;;;20.30;99.90;;;;;;5105666;28;20439;-75
2023/07/01 08:10:53;;;;;;;2.57;2.27;;;20.20;99.30;;;;;;5090189;28;20235;-75
2023/07/01 08:13:19;;;;;;;2.43;1.83;;;20.10;99.90;;;;;;5090073;28;20181;-75
2023/07/01 08:15:45;;;;;;;2.47;2.10;;;20.00;99.90;;;;;;5106600;28;20456;-75
2023/07/01 08:18:11;;;;;;;4.10;2.10;;;20.00;99.90;;;;;;5102735;28;20414;-75
2023/07/01 08:20:38;;;;;;;3.20;2.53;;;19.90;99.90;;;;;;5127832;28;20787;-74
2023/07/01 08:23:04;;;;;;;2.30;2.10;;;19.80;99.90;;;;;;5093174;28;20482;-74
2023/07/01 08:25:30;;;;;;;3.73;1.80;;;19.80;99.90;;;;;;5092933;28;20398;-74
2023/07/01 08:27:57;;;;;;;3.57;2.30;;;19.80;99.90;;;;;;5092016;28;20450;-72
2023/07/01 08:30:23;;;;;;;3.00;2.00;;;19.60;99.90;;;;;;5108144;28;20201;-75
2023/07/01 08:32:49;;;;;;;3.17;1.90;;;19.30;99.90;;;;;;5088348;28;20411;-74
2023/07/01 08:35:14;;;;;;;4.67;2.47;;;19.10;99.90;;;;;;5089853;28;20180;-75
2023/07/01 08:37:40;;;;;;;3.10;1.80;;;18.90;99.90;;;;;;5067720;28;20211;-74
2023/07/01 08:40:09;;;;;;;2.97;1.90;;;18.80;99.90;;;;;;5121299;28;20203;-75
2023/07/01 08:42:43;;;;;;;2.27;1.90;;;18.80;99.90;;;;;;5127091;28;20156;-76
2023/07/01 08:45:09;;;;;;;2.00;1.80;;;18.90;99.90;;;;;;5080410;28;20472;-74
2023/07/01 08:47:35;;;;;;;2.83;1.50;;;19.00;99.90;;;;;;5126259;28;20409;-75
2023/07/01 08:50:05;;;;;;;3.40;1.60;;;19.10;99.90;;;;;;5093059;28;20461;-74
2023/07/01 08:52:39;;;;;;;1.80;1.60;;;19.20;99.90;;;;;;5128407;28;20410;-75
2023/07/01 08:55:07;;;;;;;2.33;1.63;;;19.40;99.90;;;;;;5099051;28;20404;-75
2023/07/01 08:57:33;;;;;;;3.30;2.13;;;19.70;99.90;;;;;;5103021;28;20710;-78
2023/07/01 09:00:00;;;;;;;1.90;1.50;;;19.90;99.90;;;;;;5094396;28;20421;-74
2023/07/01 09:02:25;;;;;;;2.27;2.07;;;20.10;99.90;;;;;;5084662;28;20420;-75
2023/07/01 09:04:51;;;;;;;3.30;1.67;;;20.20;99.90;;;;;;5108645;28;20807;-77
2023/07/01 09:07:16;;;;;;;2.47;1.70;;;20.50;99.90;;;;;;5092893;28;20578;-77
2023/07/01 09:09:44;;;;;;;1.93;1.60;;;20.70;99.90;;;;;;5126067;28;20211;-74
2023/07/01 09:12:10;;;;;;;2.73;1.60;;;20.90;99.90;;;;;;5091790;28;20184;-76
2023/07/01 09:14:55;;;;;;;1.80;1.40;;;21.10;99.40;;;;;;5121810;28;20485;-75
2023/07/01 09:17:30;;;;;;;2.27;1.90;;;21.40;96.40;;;;;;5087865;28;20653;-76
2023/07/01 09:19:59;;;;;;;1.87;1.43;;;21.50;95.60;;;;;;5089091;28;20444;-75
2023/07/01 09:22:25;;;;;;;3.90;1.80;;;21.50;93.40;;;;;;5118397;28;20402;-76
2023/07/01 09:24:50;;;;;;;2.23;1.63;;;21.50;93.70;;;;;;5130068;28;20397;-76
2023/07/01 09:27:16;;;;;;;4.90;2.10;;;21.40;94.30;;;;;;5089137;28;20199;-77
2023/07/01 09:29:42;;;;;;;3.00;1.80;;;21.40;94.70;;;;;;5094108;28;20247;-78
2023/07/01 09:32:08;;;;;;;4.53;1.77;;;21.40;95.10;;;;;;5087215;28;20179;-75
2023/07/01 09:35:00;;;;;;;2.43;1.80;;;21.30;94.90;;;;;;5110882;28;20404;-75
2023/07/01 09:37:26;;;;;;;2.00;1.80;;;21.20;95.70;;;;;;5117899;28;20438;-75
2023/07/01 09:39:52;;;;;;;2.23;2.00;;;21.10;96.60;;;;;;5105871;28;20500;-76
2023/07/01 09:42:18;;;;;;;1.80;1.47;;;21.10;97.20;;;;;;5076911;28;20453;-73
2023/07/01 09:45:03;;;;;;;2.00;1.60;;;21.10;97.50;;;;;;5103942;28;20220;-75
2023/07/01 09:47:29;;;;;;;2.67;2.00;;;21.10;98.40;;;;;;5068405;28;20422;-75
2023/07/01 09:49:55;;;;;;;2.27;1.40;;;21.10;99.00;;;;;;5067413;28;20443;-74
2023/07/01 09:52:34;;;;;;;2.03;1.40;;;21.10;99.40;;;;;;5085608;28;20412;-74
2023/07/01 09:55:02;;;;;;;1.47;1.13;;;21.20;99.90;;;;;;5071576;28;20177;-75
2023/07/01 09:57:29;;;;;;;1.60;1.10;;;21.20;99.90;;;;;;5106530;28;20426;-73
2023/07/01 09:59:55;;;;;;;1.80;1.53;;;21.00;99.90;;;;;;5114786;28;20530;-74
2023/07/01 10:02:22;;;;;;;1.70;1.53;;;20.70;99.90;;;;;;5097564;28;20406;-76
2023/07/01 10:04:48;;;;;;;1.80;1.50;;;20.40;99.90;;;;;;5106408;28;20757;-77
2023/07/01 10:07:14;;;;;;;3.43;1.43;;;20.10;99.90;;;;;;5088260;28;20407;-78
2023/07/01 10:09:44;;;;;;;2.00;1.53;;;19.90;99.90;;;;;;5087682;28;20232;-75
2023/07/01 10:12:12;;;;;;;2.00;1.50;;;19.70;99.90;;;;;;5078019;28;20210;-75
2023/07/01 10:14:38;;;;;;;1.47;1.33;;;19.60;99.90;;;;;;5117960;28;20431;-76
2023/07/01 10:17:04;;;;;;;1.83;1.30;;;19.60;99.90;;;;;;5066090;28;20563;-76
2023/07/01 10:19:32;;;;;;;2.63;2.00;;;19.60;99.90;;;;;;5091681;28;20453;-77
2023/07/01 10:22:22;;;;;;;2.20;1.90;;;19.50;99.90;;;;;;5105230;28;20425;-74
2023/07/01 10:25:05;;;;;;;1.93;1.73;;;19.40;99.90;;;;;;5104809;28;20409;-75
2023/07/01 10:27:40;;;;;;;2.70;1.43;;;19.40;99.90;;;;;;5071154;28;20418;-76
2023/07/01 10:30:13;;;;;;;2.53;1.50;;;19.40;99.90;;;;;;5100231;28;20480;-75
2023/07/01 10:32:40;;;;;;;1.67;1.40;;;19.50;99.90;;;;;;5104837;28;20418;-75
2023/07/01 10:35:07;;;;;;;1.70;1.40;;;19.50;99.90;;;;;;5089364;28;20383;-75
2023/07/01 10:37:34;;;;;;;1.33;1.23;;;19.40;99.90;;;;;;5075318;28;20413;-74
2023/07/01 10:40:40;;;;;;;3.30;3.00;;;19.40;99.90;;;;;;5074470;28;20426;-75
2023/07/01 10:43:25;;;;;;;1.80;1.60;;;19.30;99.90;;;;;;5093494;28;20414;-77
2023/07/01 10:46:21;;;;;;;2.70;2.50;;;19.20;99.90;;;;;;5107842;28;20446;-76
2023/07/01 10:49:01;;;;;;;2.77;2.17;;;19.20;99.90;;;;;;5106580;28;20438;-75
2023/07/01 10:51:31;;;;;;;2.10;1.90;;;19.10;99.90;;;;;;5092233;28;20414;-76
2023/07/01 10:54:00;;;;;;;2.80;1.67;;;19.00;99.90;;;;;;5090678;28;20529;-78
2023/07/01 10:56:36;;;;;;;2.00;1.57;;;19.10;99.90;;;;;;5072291;28;20683;-76
2023/07/01 10:59:26;;;;;;;1.53;1.43;;;19.30;99.90;;;;;;5087615;28;20449;-75
2023/07/01 11:01:57;;;;;;;1.80;1.47;;;19.40;99.90;;;;;;5085906;28;20437;-76
2023/07/01 11:04:24;;;;;;;2.20;1.80;;;19.30;99.90;;;;;;5070846;28;20482;-77
2023/07/01 11:06:53;;;;;;;1.90;1.37;;;19.30;99.90;;;;;;5117654;28;20417;-76
2023/07/01 11:09:32;;;;;;;1.57;1.40;;;19.40;99.90;;;;;;5107605;28;20552;-77
2023/07/01 11:12:00;;;;;;;1.27;1.00;;;19.30;99.90;;;;;;5117884;28;20689;-76
2023/07/01 11:14:38;;;;;;;1.30;1.00;;;19.10;99.90;;;;;;5104662;28;20674;-76
2023/07/01 11:17:13;;;;;;;1.03;0.80;;;19.00;99.90;;;;;;5090726;28;20552;-78
2023/07/01 11:19:39;;;;;;;1.23;0.97;;;19.00;99.90;;;;;;5117827;28;20490;-76
2023/07/01 11:22:05;;;;;;;1.43;0.83;;;19.00;99.90;;;;;;5085256;28;20866;-77
2023/07/01 11:24:32;;;;;;;1.30;0.90;;;19.00;99.90;;;;;;5072634;28;20407;-77
2023/07/01 11:27:02;;;;;;;1.17;1.00;;;18.90;99.90;;;;;;5055993;28;20415;-76
2023/07/01 11:29:29;;;;;;;1.10;0.90;;;18.90;99.90;;;;;;5091887;28;20475;-76
2023/07/01 11:32:06;;;;;;;1.00;0.70;;;18.90;99.90;;;;;;5096342;28;20445;-76
2023/07/01 11:34:32;;;;;;;1.40;1.17;;;18.80;99.90;;;;;;5113652;28;20410;-75
2023/07/01 11:36:59;;;;;;;1.10;0.70;;;18.70;99.90;;;;;;5096914;28;20433;-76
2023/07/01 11:39:25;;;;;;;1.10;0.93;;;18.70;99.90;;;;;;5112814;28;20429;-77
2023/07/01 11:41:52;;;;;;;1.60;0.90;;;18.70;99.90;;;;;;5105029;28;20423;-78
2023/07/01 11:44:23;;;;;;;1.97;1.17;;;18.70;99.90;;;;;;5094743;28;20448;-76
2023/07/01 11:46:52;;;;;;;1.80;1.13;;;18.70;99.90;;;;;;5077653;28;20430;-77
2023/07/01 11:49:29;;;;;;;1.20;1.07;;;18.70;99.90;;;;;;5090565;28;20492;-76
2023/07/01 11:51:59;;;;;;;1.27;0.80;;;18.80;99.90;;;;;;5124362;28;20448;-75
2023/07/01 11:54:44;;;;;;;1.07;0.87;;;18.80;99.90;;;;;;5133918;28;20405;-79
2023/07/01 11:57:18;;;;;;;1.20;1.03;;;18.80;99.90;;;;;;5132282;28;20386;-76
2023/07/01 11:59:52;;;;;;;1.50;1.00;;;18.70;99.90;;;;;;5118609;28;20712;-77
2023/07/01 12:02:30;;;;;;;1.10;0.80;;;18.80;99.90;;;;;;5062680;28;20403;-78
2023/07/01 12:04:55;;;;;;;1.10;0.90;;;18.80;99.90;;;;;;5108134;28;20542;-76
2023/07/01 12:07:21;;;;;;;1.00;0.70;;;18.80;99.90;;;;;;5094805;28;20410;-75
2023/07/01 12:09:47;;;;;;;1.23;0.90;;;18.80;99.90;;;;;;5111502;28;20227;-76
2023/07/01 12:12:17;;;;;;;1.30;1.10;;;18.70;99.90;;;;;;5111525;28;20690;-76
2023/07/01 12:14:43;;;;;;;1.50;1.20;;;18.60;99.90;;;;;;5108475;28;20192;-78
2023/07/01 12:17:30;;;;;;;1.57;1.13;;;18.60;99.90;;;;;;5090288;28;20438;-76
2023/07/01 12:19:58;;;;;;;1.60;1.10;;;18.70;99.90;;;;;;5093389;28;20445;-78
2023/07/01 12:22:27;;;;;;;1.33;1.10;;;18.80;99.90;;;;;;5114445;28;20399;-77
2023/07/01 12:24:55;;;;;;;1.00;0.90;;;19.00;99.90;;;;;;5112115;28;20420;-76
2023/07/01 12:27:21;;;;;;;1.10;0.90;;;19.00;99.90;;;;;;5113537;28;20439;-77
2023/07/01 12:29:47;;;;;;;1.27;1.00;;;19.00;99.90;;;;;;5100117;28;20483;-77
2023/07/01 12:32:13;;;;;;;1.37;1.20;;;19.00;99.90;;;;;;5076502;28;20413;-77
2023/07/01 12:34:38;;;;;;;1.30;1.00;;;18.90;99.90;;;;;;5114387;28;20180;-78
2023/07/01 12:37:06;;;;;;;1.13;1.03;;;19.00;99.90;;;;;;5109479;28;20180;-78
2023/07/01 12:39:32;;;;;;;1.23;1.00;;;19.10;99.90;;;;;;5095406;28;20212;-79
2023/07/01 12:41:58;;;;;;;1.00;0.90;;;19.20;99.90;;;;;;5095595;28;20391;-77
2023/07/01 12:44:24;;;;;;;1.77;1.20;;;19.20;99.90;;;;;;5093538;28;20203;-79
2023/07/01 12:46:50;;;;;;;1.20;0.93;;;19.10;99.90;;;;;;5075157;28;20423;-78
2023/07/01 12:49:16;;;;;;;1.50;1.10;;;18.90;99.90;;;;;;5060661;28;20734;-76
2023/07/01 12:51:43;;;;;;;1.30;1.20;;;18.90;99.90;;;;;;5113123;28;20518;-76